sensor_id;sensor_type;location;lat;lon;timestamp;P1;durP1;ratioP1;P2;durP2;ratioP2
39022;SDS011;25908;51.984;5.928;2023-03-21T00:01:36;28.17;;;19.10;;
39022;SDS011;25908;51.984;5.928;2023-03-21T00:04:02;28.85;;;18.20;;
39022;SDS011;25908;51.984;5.928;2023-03-21T00:06:28;27.58;;;17.80;;
39022;SDS011;25908;51.984;5.928;2023-03-21T00:08:53;34.20;;;20.25;;
39022;SDS011;25908;51.984;5.928;2023-03-21T00:11:19;31.25;;;19.42;;
39022;SDS011;25908;51.984;5.928;2023-03-21T00:13:45;28.50;;;20.30;;
39022;SDS011;25908;51.984;5.928;2023-03-21T00:16:15;31.20;;;19.38;;
39022;SDS011;25908;51.984;5.928;2023-03-21T00:18:43;31.50;;;21.02;;
39022;SDS011;25908;51.984;5.928;2023-03-21T00:21:12;30.42;;;20.30;;
39022;SDS011;25908;51.984;5.928;2023-03-21T00:23:42;29.02;;;20.67;;
39022;SDS011;25908;51.984;5.928;2023-03-21T00:26:08;30.77;;;20.63;;
39022;SDS011;25908;51.984;5.928;2023-03-21T00:28:38;29.88;;;21.42;;
39022;SDS011;25908;51.984;5.928;2023-03-21T00:31:05;34.70;;;21.48;;
39022;SDS011;25908;51.984;5.928;2023-03-21T00:33:31;32.10;;;22.02;;
39022;SDS011;25908;51.984;5.928;2023-03-21T00:35:57;32.47;;;22.05;;
39022;SDS011;25908;51.984;5.928;2023-03-21T00:38:22;28.02;;;20.88;;
39022;SDS011;25908;51.984;5.928;2023-03-21T00:40:48;27.13;;;20.23;;
39022;SDS011;25908;51.984;5.928;2023-03-21T00:43:15;30.35;;;21.55;;
39022;SDS011;25908;51.984;5.928;2023-03-21T00:45:47;34.60;;;21.80;;
39022;SDS011;25908;51.984;5.928;2023-03-21T00:48:15;30.38;;;21.05;;
39022;SDS011;25908;51.984;5.928;2023-03-21T00:50:42;30.98;;;21.05;;
39022;SDS011;25908;51.984;5.928;2023-03-21T00:53:09;32.55;;;20.35;;
39022;SDS011;25908;51.984;5.928;2023-03-21T00:55:35;26.98;;;20.08;;
39022;SDS011;25908;51.984;5.928;2023-03-21T00:58:02;27.70;;;19.88;;
39022;SDS011;25908;51.984;5.928;2023-03-21T01:00:28;26.42;;;20.40;;
39022;SDS011;25908;51.984;5.928;2023-03-21T01:02:54;25.23;;;18.48;;
39022;SDS011;25908;51.984;5.928;2023-03-21T01:05:24;23.20;;;18.45;;
39022;SDS011;25908;51.984;5.928;2023-03-21T01:08:11;28.35;;;20.02;;
39022;SDS011;25908;51.984;5.928;2023-03-21T01:10:38;24.05;;;19.30;;
39022;SDS011;25908;51.984;5.928;2023-03-21T01:13:06;28.75;;;18.80;;
39022;SDS011;25908;51.984;5.928;2023-03-21T01:15:32;30.63;;;19.23;;
39022;SDS011;25908;51.984;5.928;2023-03-21T01:17:58;29.63;;;20.25;;
39022;SDS011;25908;51.984;5.928;2023-03-21T01:20:24;28.77;;;19.55;;
39022;SDS011;25908;51.984;5.928;2023-03-21T01:22:50;24.23;;;17.90;;
39022;SDS011;25908;51.984;5.928;2023-03-21T01:25:16;26.60;;;18.55;;
39022;SDS011;25908;51.984;5.928;2023-03-21T01:27:41;27.48;;;20.27;;
39022;SDS011;25908;51.984;5.928;2023-03-21T01:30:07;28.25;;;19.67;;
39022;SDS011;25908;51.984;5.928;2023-03-21T01:32:33;26.48;;;19.17;;
39022;SDS011;25908;51.984;5.928;2023-03-21T01:34:59;27.38;;;19.90;;
39022;SDS011;25908;51.984;5.928;2023-03-21T01:37:24;27.17;;;19.80;;
39022;SDS011;25908;51.984;5.928;2023-03-21T01:39:50;37.28;;;20.90;;
39022;SDS011;25908;51.984;5.928;2023-03-21T01:42:16;26.52;;;19.05;;
39022;SDS011;25908;51.984;5.928;2023-03-21T01:44:52;23.17;;;18.45;;
39022;SDS011;25908;51.984;5.928;2023-03-21T01:47:23;24.80;;;18.05;;
39022;SDS011;25908;51.984;5.928;2023-03-21T01:49:50;26.02;;;19.05;;
39022;SDS011;25908;51.984;5.928;2023-03-21T01:52:35;21.95;;;17.55;;
39022;SDS011;25908;51.984;5.928;2023-03-21T01:55:06;22.35;;;17.77;;
39022;SDS011;25908;51.984;5.928;2023-03-21T01:57:37;25.15;;;17.75;;
39022;SDS011;25908;51.984;5.928;2023-03-21T02:00:06;23.83;;;17.48;;
39022;SDS011;25908;51.984;5.928;2023-03-21T02:02:36;24.27;;;17.17;;
39022;SDS011;25908;51.984;5.928;2023-03-21T02:05:15;28.30;;;18.15;;
39022;SDS011;25908;51.984;5.928;2023-03-21T02:07:44;22.75;;;16.70;;
39022;SDS011;25908;51.984;5.928;2023-03-21T02:10:11;21.73;;;16.27;;
39022;SDS011;25908;51.984;5.928;2023-03-21T02:12:40;23.43;;;16.47;;
39022;SDS011;25908;51.984;5.928;2023-03-21T02:15:06;26.80;;;17.75;;
39022;SDS011;25908;51.984;5.928;2023-03-21T02:17:43;22.88;;;16.75;;
39022;SDS011;25908;51.984;5.928;2023-03-21T02:31:23;22.08;;;17.30;;
39022;SDS011;25908;51.984;5.928;2023-03-21T02:34:30;26.27;;;18.00;;
39022;SDS011;25908;51.984;5.928;2023-03-21T02:37:34;27.88;;;18.23;;
39022;SDS011;25908;51.984;5.928;2023-03-21T02:40:11;24.77;;;17.73;;
39022;SDS011;25908;51.984;5.928;2023-03-21T02:42:46;25.52;;;18.27;;
39022;SDS011;25908;51.984;5.928;2023-03-21T02:45:29;29.65;;;20.48;;
39022;SDS011;25908;51.984;5.928;2023-03-21T02:48:04;28.95;;;19.38;;
39022;SDS011;25908;51.984;5.928;2023-03-21T02:50:44;28.77;;;18.40;;
39022;SDS011;25908;51.984;5.928;2023-03-21T02:53:15;23.85;;;17.95;;
39022;SDS011;25908;51.984;5.928;2023-03-21T02:55:44;25.83;;;19.55;;
39022;SDS011;25908;51.984;5.928;2023-03-21T02:58:12;23.90;;;18.05;;
39022;SDS011;25908;51.984;5.928;2023-03-21T03:00:42;26.52;;;19.48;;
39022;SDS011;25908;51.984;5.928;2023-03-21T03:03:10;29.83;;;18.45;;
39022;SDS011;25908;51.984;5.928;2023-03-21T03:05:40;26.40;;;18.73;;
39022;SDS011;25908;51.984;5.928;2023-03-21T03:08:31;28.02;;;19.52;;
39022;SDS011;25908;51.984;5.928;2023-03-21T03:19:28;25.95;;;18.27;;
39022;SDS011;25908;51.984;5.928;2023-03-21T03:22:09;28.70;;;19.17;;
39022;SDS011;25908;51.984;5.928;2023-03-21T03:25:13;28.20;;;19.40;;
39022;SDS011;25908;51.984;5.928;2023-03-21T03:27:36;22.73;;;18.33;;
39022;SDS011;25908;51.984;5.928;2023-03-21T03:30:06;24.40;;;17.48;;
39022;SDS011;25908;51.984;5.928;2023-03-21T03:32:39;25.52;;;18.10;;
39022;SDS011;25908;51.984;5.928;2023-03-21T03:35:08;27.42;;;18.73;;
39022;SDS011;25908;51.984;5.928;2023-03-21T03:37:37;26.85;;;18.30;;
39022;SDS011;25908;51.984;5.928;2023-03-21T03:40:06;25.90;;;18.40;;
39022;SDS011;25908;51.984;5.928;2023-03-21T03:42:42;27.42;;;19.02;;
39022;SDS011;25908;51.984;5.928;2023-03-21T03:45:12;29.48;;;17.20;;
39022;SDS011;25908;51.984;5.928;2023-03-21T03:47:40;28.30;;;18.48;;
39022;SDS011;25908;51.984;5.928;2023-03-21T03:53:16;26.13;;;17.80;;
39022;SDS011;25908;51.984;5.928;2023-03-21T03:55:46;27.05;;;17.17;;
39022;SDS011;25908;51.984;5.928;2023-03-21T03:58:16;27.48;;;16.58;;
39022;SDS011;25908;51.984;5.928;2023-03-21T04:00:43;21.52;;;15.18;;
39022;SDS011;25908;51.984;5.928;2023-03-21T04:03:09;27.90;;;15.18;;
39022;SDS011;25908;51.984;5.928;2023-03-21T04:05:34;22.58;;;15.77;;
39022;SDS011;25908;51.984;5.928;2023-03-21T04:08:00;24.83;;;16.17;;
39022;SDS011;25908;51.984;5.928;2023-03-21T04:10:26;23.67;;;15.57;;
39022;SDS011;25908;51.984;5.928;2023-03-21T04:12:52;23.02;;;15.02;;
39022;SDS011;25908;51.984;5.928;2023-03-21T04:15:17;21.23;;;14.07;;
39022;SDS011;25908;51.984;5.928;2023-03-21T04:17:44;21.52;;;13.27;;
39022;SDS011;25908;51.984;5.928;2023-03-21T04:20:10;23.77;;;13.80;;
39022;SDS011;25908;51.984;5.928;2023-03-21T04:22:36;21.52;;;13.40;;
39022;SDS011;25908;51.984;5.928;2023-03-21T04:25:02;18.98;;;13.05;;
39022;SDS011;25908;51.984;5.928;2023-03-21T04:27:29;23.13;;;13.52;;
39022;SDS011;25908;51.984;5.928;2023-03-21T04:29:57;22.75;;;13.85;;
39022;SDS011;25908;51.984;5.928;2023-03-21T04:32:23;21.05;;;11.85;;
39022;SDS011;25908;51.984;5.928;2023-03-21T04:34:50;22.65;;;13.27;;
39022;SDS011;25908;51.984;5.928;2023-03-21T04:37:18;22.88;;;11.73;;
39022;SDS011;25908;51.984;5.928;2023-03-21T04:39:47;20.65;;;10.65;;
39022;SDS011;25908;51.984;5.928;2023-03-21T04:42:14;17.70;;;11.48;;
39022;SDS011;25908;51.984;5.928;2023-03-21T04:44:40;18.90;;;11.38;;
39022;SDS011;25908;51.984;5.928;2023-03-21T04:47:06;19.05;;;11.43;;
39022;SDS011;25908;51.984;5.928;2023-03-21T04:49:31;16.63;;;11.45;;
39022;SDS011;25908;51.984;5.928;2023-03-21T04:51:57;18.08;;;11.35;;
39022;SDS011;25908;51.984;5.928;2023-03-21T04:54:24;19.13;;;10.68;;
39022;SDS011;25908;51.984;5.928;2023-03-21T04:56:49;17.90;;;11.40;;
39022;SDS011;25908;51.984;5.928;2023-03-21T04:59:16;19.20;;;10.98;;
39022;SDS011;25908;51.984;5.928;2023-03-21T05:01:43;20.30;;;11.02;;
39022;SDS011;25908;51.984;5.928;2023-03-21T05:04:09;19.35;;;11.68;;
39022;SDS011;25908;51.984;5.928;2023-03-21T05:06:36;14.55;;;10.20;;
39022;SDS011;25908;51.984;5.928;2023-03-21T05:09:03;21.70;;;12.23;;
39022;SDS011;25908;51.984;5.928;2023-03-21T05:11:30;17.52;;;10.32;;
39022;SDS011;25908;51.984;5.928;2023-03-21T05:13:56;15.88;;;10.65;;
39022;SDS011;25908;51.984;5.928;2023-03-21T05:16:23;19.40;;;11.48;;
39022;SDS011;25908;51.984;5.928;2023-03-21T05:18:51;20.77;;;10.82;;
39022;SDS011;25908;51.984;5.928;2023-03-21T05:21:18;18.95;;;10.68;;
39022;SDS011;25908;51.984;5.928;2023-03-21T05:23:45;18.15;;;10.93;;
39022;SDS011;25908;51.984;5.928;2023-03-21T05:26:19;15.93;;;10.13;;
39022;SDS011;25908;51.984;5.928;2023-03-21T05:28:46;15.30;;;10.48;;
39022;SDS011;25908;51.984;5.928;2023-03-21T05:31:14;17.38;;;9.95;;
39022;SDS011;25908;51.984;5.928;2023-03-21T05:33:41;20.63;;;10.80;;
39022;SDS011;25908;51.984;5.928;2023-03-21T05:36:07;19.50;;;9.70;;
39022;SDS011;25908;51.984;5.928;2023-03-21T05:38:33;21.23;;;11.20;;
39022;SDS011;25908;51.984;5.928;2023-03-21T05:40:59;19.80;;;11.00;;
39022;SDS011;25908;51.984;5.928;2023-03-21T05:43:25;23.67;;;11.93;;
39022;SDS011;25908;51.984;5.928;2023-03-21T05:45:51;16.65;;;10.32;;
39022;SDS011;25908;51.984;5.928;2023-03-21T05:48:16;21.60;;;11.15;;
39022;SDS011;25908;51.984;5.928;2023-03-21T05:50:42;16.70;;;10.40;;
39022;SDS011;25908;51.984;5.928;2023-03-21T05:53:08;17.65;;;10.05;;
39022;SDS011;25908;51.984;5.928;2023-03-21T05:55:34;17.92;;;10.80;;
39022;SDS011;25908;51.984;5.928;2023-03-21T05:58:00;22.75;;;10.75;;
39022;SDS011;25908;51.984;5.928;2023-03-21T06:00:25;20.48;;;11.02;;
39022;SDS011;25908;51.984;5.928;2023-03-21T06:02:51;19.65;;;10.15;;
39022;SDS011;25908;51.984;5.928;2023-03-21T06:05:16;17.80;;;10.98;;
39022;SDS011;25908;51.984;5.928;2023-03-21T06:07:42;16.05;;;9.52;;
39022;SDS011;25908;51.984;5.928;2023-03-21T06:10:08;20.55;;;11.57;;
39022;SDS011;25908;51.984;5.928;2023-03-21T06:12:34;17.23;;;10.48;;
39022;SDS011;25908;51.984;5.928;2023-03-21T06:15:00;19.17;;;10.75;;
39022;SDS011;25908;51.984;5.928;2023-03-21T06:17:26;14.95;;;10.27;;
39022;SDS011;25908;51.984;5.928;2023-03-21T06:19:51;20.35;;;11.88;;
39022;SDS011;25908;51.984;5.928;2023-03-21T06:22:17;19.83;;;12.25;;
39022;SDS011;25908;51.984;5.928;2023-03-21T06:24:43;18.23;;;10.75;;
39022;SDS011;25908;51.984;5.928;2023-03-21T06:27:08;16.88;;;10.98;;
39022;SDS011;25908;51.984;5.928;2023-03-21T06:29:34;19.60;;;11.07;;
39022;SDS011;25908;51.984;5.928;2023-03-21T06:31:59;20.27;;;11.35;;
39022;SDS011;25908;51.984;5.928;2023-03-21T06:34:25;23.25;;;11.32;;
39022;SDS011;25908;51.984;5.928;2023-03-21T06:36:51;18.88;;;10.55;;
39022;SDS011;25908;51.984;5.928;2023-03-21T06:39:18;21.85;;;10.88;;
39022;SDS011;25908;51.984;5.928;2023-03-21T06:41:44;19.13;;;11.23;;
39022;SDS011;25908;51.984;5.928;2023-03-21T06:44:10;18.27;;;10.18;;
39022;SDS011;25908;51.984;5.928;2023-03-21T06:46:35;19.48;;;9.73;;
39022;SDS011;25908;51.984;5.928;2023-03-21T06:49:02;17.25;;;9.63;;
39022;SDS011;25908;51.984;5.928;2023-03-21T06:51:27;17.55;;;9.90;;
39022;SDS011;25908;51.984;5.928;2023-03-21T06:53:53;17.88;;;10.00;;
39022;SDS011;25908;51.984;5.928;2023-03-21T06:56:19;16.20;;;9.02;;
39022;SDS011;25908;51.984;5.928;2023-03-21T06:58:45;21.02;;;10.20;;
39022;SDS011;25908;51.984;5.928;2023-03-21T07:01:10;17.95;;;9.30;;
39022;SDS011;25908;51.984;5.928;2023-03-21T07:03:36;16.85;;;10.70;;
39022;SDS011;25908;51.984;5.928;2023-03-21T07:06:07;19.20;;;9.18;;
39022;SDS011;25908;51.984;5.928;2023-03-21T07:08:36;16.25;;;9.73;;
39022;SDS011;25908;51.984;5.928;2023-03-21T07:11:02;18.77;;;10.52;;
39022;SDS011;25908;51.984;5.928;2023-03-21T07:13:28;16.90;;;9.05;;
39022;SDS011;25908;51.984;5.928;2023-03-21T07:15:54;21.45;;;9.65;;
39022;SDS011;25908;51.984;5.928;2023-03-21T07:18:20;21.77;;;9.68;;
39022;SDS011;25908;51.984;5.928;2023-03-21T07:20:46;17.05;;;9.20;;
39022;SDS011;25908;51.984;5.928;2023-03-21T07:23:15;19.73;;;9.80;;
39022;SDS011;25908;51.984;5.928;2023-03-21T07:25:48;18.58;;;9.55;;
39022;SDS011;25908;51.984;5.928;2023-03-21T07:28:15;21.85;;;10.80;;
39022;SDS011;25908;51.984;5.928;2023-03-21T07:30:41;17.73;;;8.75;;
39022;SDS011;25908;51.984;5.928;2023-03-21T07:33:08;20.23;;;9.45;;
39022;SDS011;25908;51.984;5.928;2023-03-21T07:35:33;19.25;;;9.90;;
39022;SDS011;25908;51.984;5.928;2023-03-21T07:38:01;20.73;;;9.38;;
39022;SDS011;25908;51.984;5.928;2023-03-21T07:40:30;15.27;;;8.85;;
39022;SDS011;25908;51.984;5.928;2023-03-21T07:42:56;16.95;;;9.23;;
39022;SDS011;25908;51.984;5.928;2023-03-21T07:45:22;18.27;;;10.27;;
39022;SDS011;25908;51.984;5.928;2023-03-21T07:47:49;17.27;;;9.75;;
39022;SDS011;25908;51.984;5.928;2023-03-21T07:50:15;17.13;;;8.85;;
39022;SDS011;25908;51.984;5.928;2023-03-21T07:52:41;20.73;;;9.27;;
39022;SDS011;25908;51.984;5.928;2023-03-21T07:55:07;20.05;;;9.68;;
39022;SDS011;25908;51.984;5.928;2023-03-21T07:57:33;19.15;;;8.23;;
39022;SDS011;25908;51.984;5.928;2023-03-21T07:59:59;19.83;;;8.52;;
39022;SDS011;25908;51.984;5.928;2023-03-21T08:02:25;19.00;;;8.88;;
39022;SDS011;25908;51.984;5.928;2023-03-21T08:04:51;16.95;;;8.48;;
39022;SDS011;25908;51.984;5.928;2023-03-21T08:07:16;16.15;;;8.30;;
39022;SDS011;25908;51.984;5.928;2023-03-21T08:09:42;19.23;;;8.48;;
39022;SDS011;25908;51.984;5.928;2023-03-21T08:12:08;16.48;;;7.80;;
39022;SDS011;25908;51.984;5.928;2023-03-21T08:14:34;21.83;;;8.77;;
39022;SDS011;25908;51.984;5.928;2023-03-21T08:17:00;17.42;;;8.63;;
39022;SDS011;25908;51.984;5.928;2023-03-21T08:19:27;19.38;;;8.43;;
39022;SDS011;25908;51.984;5.928;2023-03-21T08:21:53;14.48;;;7.13;;
39022;SDS011;25908;51.984;5.928;2023-03-21T08:24:18;17.98;;;8.82;;
39022;SDS011;25908;51.984;5.928;2023-03-21T08:26:44;17.75;;;8.38;;
39022;SDS011;25908;51.984;5.928;2023-03-21T08:29:10;15.98;;;7.88;;
39022;SDS011;25908;51.984;5.928;2023-03-21T08:31:38;19.38;;;8.82;;
39022;SDS011;25908;51.984;5.928;2023-03-21T08:34:04;18.77;;;7.63;;
39022;SDS011;25908;51.984;5.928;2023-03-21T08:36:30;15.40;;;8.70;;
39022;SDS011;25908;51.984;5.928;2023-03-21T08:38:56;17.02;;;8.45;;
39022;SDS011;25908;51.984;5.928;2023-03-21T08:41:32;17.98;;;8.57;;
39022;SDS011;25908;51.984;5.928;2023-03-21T08:43:59;16.90;;;8.63;;
39022;SDS011;25908;51.984;5.928;2023-03-21T08:46:25;24.00;;;9.13;;
39022;SDS011;25908;51.984;5.928;2023-03-21T08:48:50;17.65;;;8.63;;
39022;SDS011;25908;51.984;5.928;2023-03-21T08:51:16;21.38;;;9.02;;
39022;SDS011;25908;51.984;5.928;2023-03-21T08:53:42;16.33;;;8.70;;
39022;SDS011;25908;51.984;5.928;2023-03-21T08:56:08;14.80;;;7.90;;
39022;SDS011;25908;51.984;5.928;2023-03-21T08:58:35;19.60;;;7.68;;
39022;SDS011;25908;51.984;5.928;2023-03-21T09:01:01;16.50;;;7.65;;
39022;SDS011;25908;51.984;5.928;2023-03-21T09:03:27;14.30;;;8.38;;
39022;SDS011;25908;51.984;5.928;2023-03-21T09:05:54;17.55;;;7.88;;
39022;SDS011;25908;51.984;5.928;2023-03-21T09:08:20;17.23;;;7.50;;
39022;SDS011;25908;51.984;5.928;2023-03-21T09:10:54;16.40;;;8.07;;
39022;SDS011;25908;51.984;5.928;2023-03-21T09:13:20;15.30;;;7.88;;
39022;SDS011;25908;51.984;5.928;2023-03-21T09:15:46;14.85;;;8.02;;
39022;SDS011;25908;51.984;5.928;2023-03-21T09:18:12;14.98;;;7.85;;
39022;SDS011;25908;51.984;5.928;2023-03-21T09:20:44;13.88;;;7.80;;
39022;SDS011;25908;51.984;5.928;2023-03-21T09:23:11;19.55;;;8.00;;
39022;SDS011;25908;51.984;5.928;2023-03-21T09:25:43;18.67;;;8.35;;
39022;SDS011;25908;51.984;5.928;2023-03-21T09:28:09;13.98;;;7.60;;
39022;SDS011;25908;51.984;5.928;2023-03-21T09:30:37;20.52;;;8.25;;
39022;SDS011;25908;51.984;5.928;2023-03-21T09:33:03;17.17;;;8.30;;
39022;SDS011;25908;51.984;5.928;2023-03-21T09:35:32;15.45;;;8.82;;
39022;SDS011;25908;51.984;5.928;2023-03-21T09:37:58;18.67;;;8.88;;
39022;SDS011;25908;51.984;5.928;2023-03-21T09:43:15;17.27;;;8.43;;
39022;SDS011;25908;51.984;5.928;2023-03-21T09:48:34;13.60;;;7.70;;
39022;SDS011;25908;51.984;5.928;2023-03-21T09:51:23;16.75;;;8.25;;
39022;SDS011;25908;51.984;5.928;2023-03-21T09:53:55;14.30;;;7.25;;
39022;SDS011;25908;51.984;5.928;2023-03-21T09:56:24;15.50;;;8.63;;
39022;SDS011;25908;51.984;5.928;2023-03-21T09:58:51;13.23;;;7.40;;
39022;SDS011;25908;51.984;5.928;2023-03-21T10:01:24;15.23;;;7.10;;
39022;SDS011;25908;51.984;5.928;2023-03-21T10:03:57;15.38;;;7.35;;
39022;SDS011;25908;51.984;5.928;2023-03-21T10:06:25;14.15;;;7.65;;
39022;SDS011;25908;51.984;5.928;2023-03-21T10:09:04;12.73;;;6.95;;
39022;SDS011;25908;51.984;5.928;2023-03-21T10:11:43;16.00;;;7.80;;
39022;SDS011;25908;51.984;5.928;2023-03-21T10:20:14;11.05;;;6.88;;
39022;SDS011;25908;51.984;5.928;2023-03-21T10:22:43;13.15;;;7.40;;
39022;SDS011;25908;51.984;5.928;2023-03-21T10:25:16;11.50;;;6.80;;
39022;SDS011;25908;51.984;5.928;2023-03-21T10:27:45;18.83;;;7.53;;
39022;SDS011;25908;51.984;5.928;2023-03-21T10:30:18;17.67;;;7.47;;
39022;SDS011;25908;51.984;5.928;2023-03-21T10:32:50;10.95;;;6.50;;
39022;SDS011;25908;51.984;5.928;2023-03-21T10:35:16;13.35;;;6.32;;
39022;SDS011;25908;51.984;5.928;2023-03-21T10:37:43;12.45;;;7.03;;
39022;SDS011;25908;51.984;5.928;2023-03-21T10:40:14;14.05;;;7.57;;
39022;SDS011;25908;51.984;5.928;2023-03-21T10:42:40;11.02;;;6.85;;
39022;SDS011;25908;51.984;5.928;2023-03-21T10:45:12;12.25;;;6.97;;
39022;SDS011;25908;51.984;5.928;2023-03-21T10:47:41;13.43;;;6.93;;
39022;SDS011;25908;51.984;5.928;2023-03-21T10:50:17;14.02;;;6.70;;
39022;SDS011;25908;51.984;5.928;2023-03-21T10:52:49;13.80;;;7.07;;
39022;SDS011;25908;51.984;5.928;2023-03-21T10:58:53;12.07;;;6.90;;
39022;SDS011;25908;51.984;5.928;2023-03-21T11:00:56;10.45;;;6.10;;
39022;SDS011;25908;51.984;5.928;2023-03-21T11:03:35;15.95;;;6.50;;
39022;SDS011;25908;51.984;5.928;2023-03-21T11:06:11;12.38;;;6.28;;
39022;SDS011;25908;51.984;5.928;2023-03-21T11:08:45;13.70;;;6.40;;
39022;SDS011;25908;51.984;5.928;2023-03-21T11:11:36;12.38;;;6.80;;
39022;SDS011;25908;51.984;5.928;2023-03-21T11:14:03;11.48;;;6.90;;
39022;SDS011;25908;51.984;5.928;2023-03-21T11:19:13;12.40;;;6.40;;
39022;SDS011;25908;51.984;5.928;2023-03-21T11:21:40;16.42;;;6.07;;
39022;SDS011;25908;51.984;5.928;2023-03-21T11:24:09;12.93;;;6.60;;
39022;SDS011;25908;51.984;5.928;2023-03-21T11:26:39;12.05;;;6.15;;
39022;SDS011;25908;51.984;5.928;2023-03-21T11:29:10;14.40;;;6.22;;
39022;SDS011;25908;51.984;5.928;2023-03-21T11:31:39;9.95;;;5.60;;
39022;SDS011;25908;51.984;5.928;2023-03-21T11:34:06;11.70;;;5.55;;
39022;SDS011;25908;51.984;5.928;2023-03-21T11:36:34;9.40;;;5.65;;
39022;SDS011;25908;51.984;5.928;2023-03-21T11:41:50;12.48;;;5.43;;
39022;SDS011;25908;51.984;5.928;2023-03-21T11:44:24;14.02;;;5.65;;
39022;SDS011;25908;51.984;5.928;2023-03-21T11:46:54;12.13;;;6.32;;
39022;SDS011;25908;51.984;5.928;2023-03-21T11:49:20;10.65;;;5.80;;
39022;SDS011;25908;51.984;5.928;2023-03-21T11:54:27;12.05;;;5.47;;
39022;SDS011;25908;51.984;5.928;2023-03-21T11:56:59;15.23;;;6.25;;
39022;SDS011;25908;51.984;5.928;2023-03-21T11:59:52;13.75;;;6.03;;
39022;SDS011;25908;51.984;5.928;2023-03-21T12:02:45;13.55;;;5.90;;
39022;SDS011;25908;51.984;5.928;2023-03-21T12:05:26;11.23;;;5.80;;
39022;SDS011;25908;51.984;5.928;2023-03-21T12:10:45;13.40;;;5.63;;
39022;SDS011;25908;51.984;5.928;2023-03-21T12:13:35;12.07;;;6.13;;
39022;SDS011;25908;51.984;5.928;2023-03-21T12:21:51;12.13;;;5.22;;
39022;SDS011;25908;51.984;5.928;2023-03-21T12:24:32;13.00;;;5.32;;
39022;SDS011;25908;51.984;5.928;2023-03-21T12:35:08;14.18;;;5.55;;
39022;SDS011;25908;51.984;5.928;2023-03-21T12:40:58;9.75;;;4.97;;
39022;SDS011;25908;51.984;5.928;2023-03-21T12:43:41;12.85;;;5.07;;
39022;SDS011;25908;51.984;5.928;2023-03-21T12:46:18;12.55;;;5.32;;
39022;SDS011;25908;51.984;5.928;2023-03-21T12:49:21;11.07;;;5.28;;
39022;SDS011;25908;51.984;5.928;2023-03-21T12:51:56;11.75;;;5.38;;
39022;SDS011;25908;51.984;5.928;2023-03-21T12:57:08;8.75;;;5.28;;
39022;SDS011;25908;51.984;5.928;2023-03-21T13:04:48;15.90;;;6.13;;
39022;SDS011;25908;51.984;5.928;2023-03-21T13:07:36;10.77;;;4.53;;
39022;SDS011;25908;51.984;5.928;2023-03-21T13:10:16;12.82;;;5.80;;
39022;SDS011;25908;51.984;5.928;2023-03-21T13:12:57;11.75;;;5.75;;
39022;SDS011;25908;51.984;5.928;2023-03-21T13:23:54;10.05;;;5.60;;
39022;SDS011;25908;51.984;5.928;2023-03-21T13:26:32;12.25;;;5.25;;
39022;SDS011;25908;51.984;5.928;2023-03-21T13:32:08;11.20;;;5.53;;
39022;SDS011;25908;51.984;5.928;2023-03-21T13:34:40;11.80;;;5.50;;
39022;SDS011;25908;51.984;5.928;2023-03-21T13:37:11;13.70;;;5.50;;
39022;SDS011;25908;51.984;5.928;2023-03-21T13:39:46;11.65;;;5.82;;
39022;SDS011;25908;51.984;5.928;2023-03-21T13:42:20;10.68;;;4.90;;
39022;SDS011;25908;51.984;5.928;2023-03-21T13:44:48;9.68;;;4.50;;
39022;SDS011;25908;51.984;5.928;2023-03-21T13:55:39;10.82;;;4.47;;
39022;SDS011;25908;51.984;5.928;2023-03-21T13:58:23;11.57;;;4.75;;
39022;SDS011;25908;51.984;5.928;2023-03-21T14:06:55;8.82;;;4.20;;
39022;SDS011;25908;51.984;5.928;2023-03-21T14:09:37;9.13;;;4.70;;
39022;SDS011;25908;51.984;5.928;2023-03-21T14:12:13;8.07;;;4.13;;
39022;SDS011;25908;51.984;5.928;2023-03-21T14:14:51;9.38;;;4.40;;
39022;SDS011;25908;51.984;5.928;2023-03-21T14:19:52;11.20;;;4.70;;
39022;SDS011;25908;51.984;5.928;2023-03-21T14:22:19;9.48;;;4.40;;
39022;SDS011;25908;51.984;5.928;2023-03-21T14:24:48;10.52;;;4.97;;
39022;SDS011;25908;51.984;5.928;2023-03-21T14:27:25;7.90;;;4.32;;
39022;SDS011;25908;51.984;5.928;2023-03-21T14:32:24;12.32;;;4.65;;
39022;SDS011;25908;51.984;5.928;2023-03-21T14:34:52;8.32;;;4.30;;
39022;SDS011;25908;51.984;5.928;2023-03-21T14:37:30;8.88;;;4.30;;
39022;SDS011;25908;51.984;5.928;2023-03-21T14:40:03;9.98;;;4.38;;
39022;SDS011;25908;51.984;5.928;2023-03-21T14:42:34;10.05;;;4.22;;
39022;SDS011;25908;51.984;5.928;2023-03-21T14:45:09;10.43;;;4.65;;
39022;SDS011;25908;51.984;5.928;2023-03-21T14:47:40;11.45;;;4.10;;
39022;SDS011;25908;51.984;5.928;2023-03-21T14:50:17;6.97;;;3.75;;
39022;SDS011;25908;51.984;5.928;2023-03-21T14:52:43;7.43;;;3.75;;
39022;SDS011;25908;51.984;5.928;2023-03-21T14:55:13;11.40;;;3.80;;
39022;SDS011;25908;51.984;5.928;2023-03-21T14:57:40;7.43;;;3.47;;
39022;SDS011;25908;51.984;5.928;2023-03-21T15:00:07;8.20;;;3.28;;
39022;SDS011;25908;51.984;5.928;2023-03-21T15:02:41;9.13;;;4.32;;
39022;SDS011;25908;51.984;5.928;2023-03-21T15:05:26;9.07;;;3.70;;
39022;SDS011;25908;51.984;5.928;2023-03-21T15:08:07;7.43;;;3.75;;
39022;SDS011;25908;51.984;5.928;2023-03-21T15:10:36;7.10;;;3.70;;
39022;SDS011;25908;51.984;5.928;2023-03-21T15:13:11;5.97;;;3.85;;
39022;SDS011;25908;51.984;5.928;2023-03-21T15:15:40;7.28;;;3.67;;
39022;SDS011;25908;51.984;5.928;2023-03-21T15:18:06;8.98;;;4.05;;
39022;SDS011;25908;51.984;5.928;2023-03-21T15:20:35;9.10;;;4.22;;
39022;SDS011;25908;51.984;5.928;2023-03-21T15:23:03;10.73;;;4.50;;
39022;SDS011;25908;51.984;5.928;2023-03-21T15:25:43;9.90;;;4.53;;
39022;SDS011;25908;51.984;5.928;2023-03-21T15:28:11;6.93;;;3.85;;
39022;SDS011;25908;51.984;5.928;2023-03-21T15:30:38;6.38;;;3.70;;
39022;SDS011;25908;51.984;5.928;2023-03-21T15:33:15;5.72;;;3.45;;
39022;SDS011;25908;51.984;5.928;2023-03-21T15:35:42;7.32;;;3.45;;
39022;SDS011;25908;51.984;5.928;2023-03-21T15:38:35;5.70;;;3.42;;
39022;SDS011;25908;51.984;5.928;2023-03-21T15:44:27;10.13;;;4.30;;
39022;SDS011;25908;51.984;5.928;2023-03-21T15:46:44;8.57;;;4.00;;
39022;SDS011;25908;51.984;5.928;2023-03-21T15:54:30;9.38;;;4.07;;
39022;SDS011;25908;51.984;5.928;2023-03-21T15:57:23;8.57;;;4.13;;
39022;SDS011;25908;51.984;5.928;2023-03-21T16:00:42;9.35;;;3.90;;
39022;SDS011;25908;51.984;5.928;2023-03-21T16:02:58;8.43;;;3.95;;
39022;SDS011;25908;51.984;5.928;2023-03-21T16:05:33;9.90;;;4.47;;
39022;SDS011;25908;51.984;5.928;2023-03-21T16:08:03;9.63;;;4.68;;
39022;SDS011;25908;51.984;5.928;2023-03-21T16:10:41;7.15;;;3.88;;
39022;SDS011;25908;51.984;5.928;2023-03-21T16:13:09;7.57;;;4.00;;
39022;SDS011;25908;51.984;5.928;2023-03-21T16:15:36;8.05;;;3.83;;
39022;SDS011;25908;51.984;5.928;2023-03-21T16:18:03;10.35;;;3.97;;
39022;SDS011;25908;51.984;5.928;2023-03-21T16:20:31;10.20;;;3.72;;
39022;SDS011;25908;51.984;5.928;2023-03-21T16:25:27;6.88;;;3.78;;
39022;SDS011;25908;51.984;5.928;2023-03-21T16:27:54;7.20;;;4.13;;
39022;SDS011;25908;51.984;5.928;2023-03-21T16:30:20;9.48;;;4.32;;
39022;SDS011;25908;51.984;5.928;2023-03-21T16:32:50;11.93;;;4.82;;
39022;SDS011;25908;51.984;5.928;2023-03-21T16:35:15;11.00;;;3.97;;
39022;SDS011;25908;51.984;5.928;2023-03-21T16:37:42;8.27;;;4.53;;
39022;SDS011;25908;51.984;5.928;2023-03-21T16:40:26;7.32;;;3.90;;
39022;SDS011;25908;51.984;5.928;2023-03-21T16:42:57;6.97;;;4.25;;